Time;durP1;ratioP1;P1;durP2;ratioP2;P2;SDS_P1;SDS_P2;PMS_P1;PMS_P2;Temp;Humidity;BMP_temperature;BMP_pressure;BME280_temperature;BME280_humidity;BME280_pressure;Samples;Min_cycle;Max_cycle;Signal;HPM_P1;HPM_P2
2024/01/03 00:00:58;;;;;;;;;46.00;37.25;;;;;9.35;73.78;101007.63;146630;619;46008;-82
2024/01/03 00:03:57;;;;;;;;;51.00;40.25;;;;;9.37;73.73;101005.12;146634;600;45012;-86
2024/01/03 00:06:56;;;;;;;;;60.75;47.50;;;;;9.35;73.39;101012.81;146629;609;45016;-89
2024/01/03 00:10:00;;;;;;;;;56.50;45.50;;;;;9.32;73.55;101002.28;146632;594;45019;-85
2024/01/03 00:12:52;;;;;;;;;54.00;40.50;;;;;9.32;73.78;101010.03;146630;566;45016;-85
2024/01/03 00:16:37;;;;;;;;;;;;;;;;;;;;;
2024/01/03 00:19:42;;;;;;;;;;;;;;;;;;;;;
2024/01/03 00:22:40;;;;;;;;;65.00;48.75;;;;;9.37;73.22;101002.53;146633;662;46020;-83
2024/01/03 00:25:36;;;;;;;;;74.00;61.67;;;;;9.25;73.30;100990.66;146632;605;45915;-83
2024/01/03 00:28:31;;;;;;;;;66.25;51.00;;;;;9.18;73.53;100988.47;146634;625;46028;-85
2024/01/03 00:32:15;;;;;;;;;57.50;46.25;;;;;7.45;73.05;100698.72;146630;592;46914;-81
2024/01/03 00:35:32;;;;;;;;;51.00;42.00;;;;;9.07;73.85;100992.13;146634;587;45008;-80
2024/01/03 00:38:43;;;;;;;;;;;;;;;;;;;;;
2024/01/03 00:41:51;;;;;;;;;49.50;40.00;;;;;9.06;73.62;100990.31;146634;615;45021;-79
2024/01/03 00:45:00;;;;;;;;;39.50;32.75;;;;;9.03;73.50;100979.78;146630;699;45912;-79
2024/01/03 00:48:06;;;;;;;;;;;;;;;;;;;;;
2024/01/03 00:51:12;;;;;;;;;38.75;32.00;;;;;8.95;73.90;100981.03;146630;576;46010;-77
2024/01/03 00:54:07;;;;;;;;;39.00;33.00;;;;;8.96;74.36;100986.28;146630;631;45020;-77
2024/01/03 00:57:04;;;;;;;;;52.00;41.00;;;;;8.93;74.50;100978.31;146633;613;45016;-76
2024/01/03 01:00:27;;;;;;;;;50.75;40.00;;;;;8.91;74.27;100982.53;146634;574;46008;-77
2024/01/03 01:03:28;;;;;;;;;44.75;35.75;;;;;8.90;74.06;100983.31;146630;590;45911;-77
2024/01/03 01:06:32;;;;;;;;;38.25;33.25;;;;;8.87;74.28;100983.13;146632;611;45008;-76
2024/01/03 01:09:33;;;;;;;;;32.75;30.00;;;;;8.84;73.80;100988.09;146634;644;46010;-78
2024/01/03 01:12:31;;;;;;;;;28.75;25.50;;;;;8.82;73.78;100987.13;146630;586;45020;-76
2024/01/03 01:15:32;;;;;;;;;26.00;25.25;;;;;8.76;73.75;100985.06;146632;576;45012;-76
2024/01/03 01:18:27;;;;;;;;;23.75;22.25;;;;;8.72;74.12;100987.34;146631;607;45022;-77
2024/01/03 01:21:36;;;;;;;;;25.25;23.00;;;;;8.72;73.46;100975.31;146628;629;45016;-82
2024/01/03 01:24:40;;;;;;;;;26.50;23.00;;;;;8.74;73.80;100968.53;146632;595;47008;-83
2024/01/03 01:27:42;;;;;;;;;23.50;21.25;;;;;8.76;73.52;100973.81;146633;605;45016;-79
2024/01/03 01:31:03;;;;;;;;;30.25;24.50;;;;;7.69;73.06;100784.50;146633;595;46008;-78
2024/01/03 01:34:13;;;;;;;;;25.25;25.25;;;;;8.79;73.49;100964.56;146632;576;45016;-79
2024/01/03 01:37:08;;;;;;;;;32.50;24.75;;;;;8.79;73.45;100961.97;146632;616;46008;-84
2024/01/03 01:40:18;;;;;;;;;34.75;27.00;;;;;8.79;73.81;100956.81;146618;625;46012;-83
2024/01/03 01:43:23;;;;;;;;;26.00;24.00;;;;;8.84;73.86;100961.34;146612;679;46027;-84
2024/01/03 01:46:30;;;;;;;;;21.50;20.50;;;;;8.86;73.32;100939.97;146610;629;46011;-80
2024/01/03 01:49:39;;;;;;;;;19.50;16.75;;;;;8.83;72.68;100933.72;146606;611;46021;-79
2024/01/03 01:52:43;;;;;;;;;20.75;18.25;;;;;7.27;72.68;100670.06;146611;578;47016;-81
2024/01/03 01:55:49;;;;;;;;;20.25;19.50;;;;;8.82;72.85;100943.19;146613;626;47021;-91
2024/01/03 01:58:50;;;;;;;;;19.00;18.00;;;;;8.82;72.76;100938.00;146609;569;47016;-82
2024/01/03 02:01:55;;;;;;;;;18.25;15.50;;;;;8.77;72.72;100936.81;146612;587;46008;-85
2024/01/03 02:04:53;;;;;;;;;15.00;13.50;;;;;8.72;72.93;100944.31;146610;616;46018;-85
2024/01/03 02:07:48;;;;;;;;;13.25;11.75;;;;;8.67;72.65;100935.34;146613;577;46020;-87
2024/01/03 02:10:53;;;;;;;;;13.75;11.75;;;;;8.59;72.66;100933.09;146612;581;46017;-82
2024/01/03 02:13:58;;;;;;;;;16.50;14.00;;;;;8.53;72.65;100929.31;146610;653;47020;-83
2024/01/03 02:17:08;;;;;;;;;20.00;16.75;;;;;7.63;72.76;100773.78;146610;566;46016;-83
2024/01/03 02:20:16;;;;;;;;;20.75;17.25;;;;;7.22;73.21;100702.38;146613;574;46020;-78
2024/01/03 02:23:18;;;;;;;;;;;;;;;;;;;;;
2024/01/03 02:26:26;;;;;;;;;14.00;12.50;;;;;8.61;73.39;100937.56;146613;585;46020;-78
2024/01/03 02:29:33;;;;;;;;;11.50;11.25;;;;;8.63;73.37;100933.41;146609;565;46012;-78
2024/01/03 02:32:32;;;;;;;;;24.25;18.75;;;;;8.69;73.40;100926.03;146614;668;46021;-78
2024/01/03 02:35:36;;;;;;;;;27.00;24.75;;;;;8.78;73.17;100933.41;146609;566;47010;-78
2024/01/03 02:38:35;;;;;;;;;13.50;11.75;;;;;8.85;72.75;100927.84;146613;760;46008;-77
2024/01/03 02:41:30;;;;;;;;;13.75;10.50;;;;;8.91;72.62;100941.16;146630;595;46016;-83
2024/01/03 02:44:30;;;;;;;;;13.75;13.00;;;;;8.92;71.75;100927.41;146618;572;46020;-83
2024/01/03 02:47:30;;;;;;;;;17.00;13.00;;;;;8.88;71.43;100928.03;146631;604;46011;-82
2024/01/03 02:50:44;;;;;;;;;10.50;9.25;;;;;8.77;71.23;100935.13;146634;563;45008;-83
2024/01/03 02:53:46;;;;;;;;;11.00;9.75;;;;;8.61;71.46;100926.34;146628;587;46016;-82
2024/01/03 02:56:57;;;;;;;;;11.25;10.25;;;;;8.48;71.61;100922.09;146635;606;45020;-83
2024/01/03 03:00:03;;;;;;;;;10.50;8.50;;;;;8.39;72.32;100921.50;146622;590;46042;-83
2024/01/03 03:03:18;;;;;;;;;11.00;9.00;;;;;8.27;72.46;100934.50;146629;567;49008;-83
2024/01/03 03:06:38;;;;;;;;;10.50;8.00;;;;;8.15;72.66;100929.44;146625;607;45912;-84
2024/01/03 03:09:35;;;;;;;;;11.25;10.00;;;;;8.06;72.91;100924.59;146635;564;45024;-82
2024/01/03 03:12:37;;;;;;;;;10.00;9.50;;;;;7.97;73.26;100921.41;146635;706;45016;-87
2024/01/03 03:15:31;;;;;;;;;9.75;9.75;;;;;7.92;73.70;100934.84;146635;578;45020;-89
2024/01/03 03:18:27;;;;;;;;;9.25;9.25;;;;;7.90;73.92;100939.00;146631;626;45016;-87
2024/01/03 03:21:29;;;;;;;;;15.25;12.25;;;;;7.87;73.52;100937.09;146634;564;45012;-81
2024/01/03 03:24:26;;;;;;;;;16.00;12.25;;;;;7.82;74.04;100928.19;146634;605;45008;-79
2024/01/03 03:27:33;;;;;;;;;31.00;24.75;;;;;7.80;74.16;100933.22;146633;563;46008;-81
2024/01/03 03:30:29;;;;;;;;;27.50;24.00;;;;;7.81;75.09;100931.53;146630;642;45915;-79
2024/01/03 03:33:39;;;;;;;;;66.00;52.00;;;;;7.94;74.85;100939.28;146635;628;45021;-75
2024/01/03 03:37:04;;;;;;;;;62.50;50.50;;;;;8.08;73.98;100937.59;146632;604;45016;-76
2024/01/03 03:39:59;;;;;;;;;22.25;21.00;;;;;8.15;73.52;100941.47;146623;594;46021;-73
2024/01/03 03:43:00;;;;;;;;;8.50;7.50;;;;;8.17;73.26;100929.56;146611;628;46010;-74
2024/01/03 03:45:55;;;;;;;;;34.25;24.75;;;;;8.18;72.93;100934.81;146618;650;46009;-74
2024/01/03 03:48:50;;;;;;;;;16.75;14.25;;;;;8.23;72.71;100932.53;146608;637;46918;-74
2024/01/03 03:51:53;;;;;;;;;22.00;18.25;;;;;8.25;72.35;100928.34;146613;599;46020;-77
2024/01/03 03:54:57;;;;;;;;;14.75;11.50;;;;;8.24;72.44;100922.28;146610;570;46017;-81
2024/01/03 03:58:01;;;;;;;;;12.00;11.00;;;;;8.24;72.23;100929.16;146615;581;46020;-80
2024/01/03 04:01:02;;;;;;;;;31.75;29.25;;;;;8.23;72.27;100924.78;146610;606;46011;-81
2024/01/03 04:04:10;;;;;;;;;23.50;22.25;;;;;8.24;72.02;100932.63;146612;732;47012;-81
2024/01/03 04:07:17;;;;;;;;;17.00;16.50;;;;;8.17;71.75;100938.19;146607;768;47012;-79
2024/01/03 04:10:27;;;;;;;;;36.25;31.50;;;;;8.14;71.79;100938.00;146613;593;46021;-81
2024/01/03 04:13:39;;;;;;;;;17.00;15.50;;;;;8.10;71.51;100944.66;146613;590;46010;-80
2024/01/03 04:16:53;;;;;;;;;14.25;11.25;;;;;6.29;71.56;100637.00;146612;653;46008;-80
2024/01/03 04:20:05;;;;;;;;;9.25;8.00;;;;;7.94;72.04;100935.81;146608;612;47016;-81
2024/01/03 04:22:57;;;;;;;;;17.50;16.75;;;;;7.85;72.65;100952.50;146620;614;46008;-82
2024/01/03 04:26:01;;;;;;;;;21.00;18.50;;;;;7.89;72.83;100951.00;146610;581;46029;-78
2024/01/03 04:28:55;;;;;;;;;75.25;57.50;;;;;7.92;72.93;100948.63;146614;660;46020;-84
2024/01/03 04:32:11;;;;;;;;;69.00;52.50;;;;;7.97;72.87;100941.16;146610;594;46030;-88
2024/01/03 04:35:09;;;;;;;;;32.25;28.50;;;;;8.01;73.03;100933.75;146615;566;46020;-85
2024/01/03 04:38:05;;;;;;;;;55.75;40.75;;;;;5.72;72.68;100527.66;146612;622;46014;-94
2024/01/03 04:46:31;;;;;;;;;;;;;;;;;;;;;
2024/01/03 04:52:05;;;;;;;;;13.75;13.25;;;;;8.17;70.91;100926.97;146614;642;46008;-76
2024/01/03 04:55:10;;;;;;;;;;;;;;;;;;;;;
2024/01/03 04:58:16;;;;;;;;;14.25;12.75;;;;;7.95;72.00;100914.38;146609;661;47020;-77
2024/01/03 05:01:27;;;;;;;;;18.25;17.75;;;;;7.92;72.26;100922.81;146611;574;47010;-78
2024/01/03 05:04:25;;;;;;;;;20.75;18.00;;;;;7.98;72.51;100932.66;146615;588;46008;-76
2024/01/03 05:07:26;;;;;;;;;50.50;39.00;;;;;8.00;72.10;100925.88;146609;573;46010;-86
2024/01/03 05:10:29;;;;;;;;;48.25;38.75;;;;;8.05;72.26;100929.66;146615;632;45021;-79
2024/01/03 05:13:29;;;;;;;;;33.50;29.25;;;;;8.08;71.95;100932.44;146608;586;47016;-83
2024/01/03 05:16:41;;;;;;;;;22.25;21.00;;;;;8.09;71.57;100929.06;146613;567;46008;-78
2024/01/03 05:19:49;;;;;;;;;26.00;25.25;;;;;8.10;71.61;100933.44;146611;573;46016;-79
2024/01/03 05:22:41;;;;;;;;;19.25;17.75;;;;;8.13;71.44;100946.56;146612;693;46021;-79
2024/01/03 05:25:45;;;;;;;;;29.25;25.75;;;;;8.14;71.34;100935.41;146613;590;45583;-73
2024/01/03 05:28:42;;;;;;;;;27.00;25.75;;;;;8.12;71.54;100941.28;146609;596;47020;-74
2024/01/03 05:31:43;;;;;;;;;37.75;31.75;;;;;8.05;71.57;100933.13;146611;593;46021;-76
2024/01/03 05:34:50;;;;;;;;;33.00;30.50;;;;;7.98;71.77;100943.88;146615;633;46020;-76
2024/01/03 05:37:57;;;;;;;;;25.25;23.50;;;;;7.96;72.17;100939.41;146613;574;46011;-75
2024/01/03 05:41:08;;;;;;;;;25.25;22.75;;;;;7.94;72.03;100941.84;146614;577;46008;-75
2024/01/03 05:44:18;;;;;;;;;22.75;20.75;;;;;8.00;72.26;100946.53;146611;708;45917;-76
2024/01/03 05:47:24;;;;;;;;;25.50;22.50;;;;;8.02;72.27;100955.28;146611;628;46008;-77
2024/01/03 05:50:24;;;;;;;;;24.50;22.75;;;;;8.04;72.15;100954.59;146610;566;47010;-76
2024/01/03 05:53:22;;;;;;;;;22.00;19.75;;;;;8.04;72.01;100962.34;146612;597;47008;-74
2024/01/03 05:56:20;;;;;;;;;29.50;27.75;;;;;8.05;72.09;100971.88;146608;607;47916;-75
2024/01/03 05:59:26;;;;;;;;;;;;;;;;;;;;;
2024/01/03 06:02:33;;;;;;;;;29.50;28.50;;;;;8.08;71.92;100963.44;146609;605;47010;-74
2024/01/03 06:05:41;;;;;;;;;66.50;50.25;;;;;8.14;72.07;100971.56;146611;597;47008;-76
2024/01/03 06:08:34;;;;;;;;;74.50;62.00;;;;;8.22;72.31;100961.72;146608;618;47016;-76
2024/01/03 06:11:30;;;;;;;;;257.00;208.75;;;;;8.31;72.09;100967.47;146619;658;46020;-77
2024/01/03 06:14:35;;;;;;;;;185.50;152.25;;;;;8.42;72.05;100975.97;146620;604;45578;-77
2024/01/03 06:17:30;;;;;;;;;265.00;210.25;;;;;8.47;71.79;100980.66;146618;631;46020;-74
2024/01/03 06:20:43;;;;;;;;;;;;;;;;;;;;;
2024/01/03 06:23:58;;;;;;;;;;;;;;;;;;;;;
2024/01/03 06:26:50;;;;;;;;;81.33;68.67;;;;;8.53;71.67;100993.03;146609;605;46916;-72
2024/01/03 06:29:55;;;;;;;;;158.00;140.75;;;;;8.51;71.43;100992.06;146625;585;46008;-72
2024/01/03 06:32:59;;;;;;;;;89.33;80.00;;;;;8.52;71.67;100996.44;146620;585;46012;-72
2024/01/03 06:36:08;;;;;;;;;201.00;167.25;;;;;8.56;71.53;100998.41;146623;571;46008;-73
2024/01/03 06:39:04;;;;;;;;;104.67;92.00;;;;;8.64;71.85;101014.41;146621;565;46010;-72
2024/01/03 06:42:10;;;;;;;;;68.50;52.50;;;;;8.70;71.73;101007.94;146618;629;47008;-72
2024/01/03 06:45:18;;;;;;;;;57.50;45.25;;;;;8.82;71.36;101019.87;146612;590;47920;-73
2024/01/03 06:48:28;;;;;;;;;49.25;39.25;;;;;8.91;70.98;101010.06;146634;657;47008;-71
2024/01/03 06:51:47;;;;;;;;;42.25;33.50;;;;;8.97;70.85;100998.44;146636;609;45008;-72
2024/01/03 06:54:57;;;;;;;;;;;;;;;;;;;;;
2024/01/03 06:58:10;;;;;;;;;21.50;19.50;;;;;9.27;70.37;101006.28;146634;595;45016;-75
2024/01/03 07:01:06;;;;;;;;;20.00;18.00;;;;;9.49;69.99;100999.00;146630;687;47008;-74
2024/01/03 07:04:17;;;;;;;;;;;;;;;;;;;;;
2024/01/03 07:07:12;;;;;;;;;38.00;32.75;;;;;10.42;71.15;101015.63;146638;583;45008;-75
2024/01/03 07:10:16;;;;;;;;;38.75;33.00;;;;;11.10;70.55;101002.97;146625;641;46016;-75
2024/01/03 07:13:17;;;;;;;;;41.25;35.00;;;;;11.94;69.43;100987.38;146631;578;46020;-75
2024/01/03 07:16:32;;;;;;;;;36.75;33.00;;;;;13.00;66.73;100989.84;146626;612;47917;-76
2024/01/03 07:20:01;;;;;;;;;35.00;29.00;;;;;13.18;63.80;100819.69;146635;618;46052;-73
2024/01/03 07:22:58;;;;;;;;;33.00;30.00;;;;;15.06;58.97;100983.63;146632;586;45010;-82
2024/01/03 07:25:50;;;;;;;;;33.25;28.50;;;;;15.80;54.81;100992.41;146635;570;46020;-83
2024/01/03 07:28:51;;;;;;;;;29.25;28.25;;;;;16.30;53.42;100990.59;146635;589;45918;-77
2024/01/03 07:31:52;;;;;;;;;43.25;32.25;;;;;16.53;49.68;100988.69;146636;569;45008;-82
2024/01/03 07:35:09;;;;;;;;;39.00;30.75;;;;;16.25;48.97;100986.94;146635;604;45010;-76
2024/01/03 07:38:09;;;;;;;;;28.50;25.75;;;;;15.82;51.12;100996.84;146622;607;47008;-78
2024/01/03 07:41:10;;;;;;;;;35.75;30.75;;;;;15.69;52.69;101000.75;146634;577;45016;-78
2024/01/03 07:44:02;;;;;;;;;33.00;29.25;;;;;15.94;52.48;100996.37;146632;653;45021;-73
2024/01/03 07:47:29;;;;;;;;;24.75;22.50;;;;;16.32;53.27;100983.66;146621;600;46016;-77
2024/01/03 07:52:07;;;;;;;;;63.50;49.25;;;;;16.57;47.70;100981.00;146699;581;45022;-77
2024/01/03 07:55:11;;;;;;;;;57.00;44.25;;;;;16.33;50.41;100982.84;146619;595;46012;-81
2024/01/03 07:58:09;;;;;;;;;51.00;41.00;;;;;16.14;51.03;100982.25;146623;653;46010;-81
2024/01/03 08:01:07;;;;;;;;;30.75;29.25;;;;;16.13;52.54;100992.63;146615;647;46016;-74
2024/01/03 08:04:10;;;;;;;;;35.75;30.50;;;;;16.21;51.27;101001.62;146622;610;46010;-82
2024/01/03 08:07:11;;;;;;;;;32.25;30.00;;;;;16.32;52.10;101000.28;146616;576;46015;-82
2024/01/03 08:10:20;;;;;;;;;42.25;31.75;;;;;16.39;50.32;100994.38;146620;664;46020;-77
2024/01/03 08:13:25;;;;;;;;;41.25;31.25;;;;;16.36;52.96;100989.06;146616;614;47012;-81
2024/01/03 08:16:24;;;;;;;;;27.00;23.75;;;;;16.43;51.63;100984.00;146622;582;46014;-83
2024/01/03 08:19:20;;;;;;;;;29.50;28.50;;;;;16.54;51.40;100978.28;146615;575;46016;-81
2024/01/03 08:22:21;;;;;;;;;29.25;26.25;;;;;16.62;51.98;100979.37;146620;669;47010;-83
2024/01/03 08:25:16;;;;;;;;;20.00;18.00;;;;;16.56;50.75;100958.25;146616;590;45036;-83
2024/01/03 08:28:32;;;;;;;;;;;;;;;;;;;;;
2024/01/03 08:31:38;;;;;;;;;23.50;20.75;;;;;16.57;51.51;100960.06;146619;578;46013;-81
2024/01/03 08:34:50;;;;;;;;;19.50;16.25;;;;;16.43;50.78;100953.50;146618;678;46020;-80
2024/01/03 08:37:51;;;;;;;;;19.00;18.50;;;;;16.32;53.14;100958.41;146620;584;46012;-83
2024/01/03 08:40:52;;;;;;;;;11.50;11.00;;;;;16.29;50.21;100968.78;146619;585;46010;-81
2024/01/03 08:44:09;;;;;;;;;;;;;;;;;;;;;
2024/01/03 08:47:02;;;;;;;;;5.25;5.00;;;;;16.21;49.05;100972.84;146621;667;46025;-82
2024/01/03 08:49:58;;;;;;;;;8.00;6.75;;;;;16.20;48.68;100976.31;146619;578;46016;-81
2024/01/03 08:52:59;;;;;;;;;8.00;7.00;;;;;16.20;49.35;100970.19;146624;714;46011;-81
2024/01/03 08:56:05;;;;;;;;;7.00;6.00;;;;;16.11;49.49;100960.31;146620;639;46012;-81
2024/01/03 08:59:18;;;;;;;;;10.00;8.00;;;;;15.99;48.60;100958.19;146622;622;46020;-82
2024/01/03 09:02:20;;;;;;;;;6.00;6.00;;;;;15.85;49.09;100947.25;146621;584;47012;-82
2024/01/03 09:05:27;;;;;;;;;3.50;2.00;;;;;15.77;47.07;100935.69;146624;662;46020;-82
2024/01/03 09:08:34;;;;;;;;;14.75;10.50;;;;;15.74;49.57;100937.31;146619;582;47012;-82
2024/01/03 09:11:42;;;;;;;;;;;;;;;;;;;;;
2024/01/03 09:14:56;;;;;;;;;5.25;4.25;;;;;15.88;51.17;100930.78;146618;644;47016;-82
2024/01/03 09:17:50;;;;;;;;;4.67;3.00;;;;;15.85;49.02;100917.59;146623;591;46020;-79
2024/01/03 09:20:54;;;;;;;;;2.00;2.00;;;;;15.81;49.66;100915.75;146620;658;46016;-82
2024/01/03 09:23:53;;;;;;;;;8.25;5.75;;;;;15.80;49.22;100927.06;146625;598;46010;-82
2024/01/03 09:26:47;;;;;;;;;8.50;7.00;;;;;15.74;49.46;100929.47;146621;739;46012;-82
2024/01/03 09:30:02;;;;;;;;;8.00;6.00;;;;;15.68;50.43;100932.75;146626;659;46010;-80
2024/01/03 09:33:00;;;;;;;;;11.75;9.75;;;;;15.62;50.01;100914.22;146617;588;47016;-81
2024/01/03 09:36:07;;;;;;;;;11.75;9.50;;;;;15.55;49.93;100910.50;146619;641;46020;-81
2024/01/03 09:39:03;;;;;;;;;8.00;5.50;;;;;15.50;50.40;100916.41;146621;686;46014;-84
2024/01/03 09:42:05;;;;;;;;;5.25;5.25;;;;;15.46;49.81;100908.47;146624;669;46020;-84
2024/01/03 09:45:07;;;;;;;;;5.00;3.25;;;;;15.47;50.46;100899.78;146619;564;47012;-83
2024/01/03 09:48:13;;;;;;;;;5.33;3.00;;;;;15.53;52.26;100906.06;146626;634;46010;-83
2024/01/03 09:51:08;;;;;;;;;8.50;8.50;;;;;15.56;48.85;100909.66;146621;585;46013;-82
2024/01/03 09:54:19;;;;;;;;;9.25;7.00;;;;;15.59;51.62;100915.00;146625;598;46014;-83
2024/01/03 09:57:21;;;;;;;;;5.75;4.50;;;;;15.58;50.13;100908.00;146622;593;46016;-84
2024/01/03 10:00:31;;;;;;;;;2.67;1.33;;;;;15.59;49.24;100899.31;146626;590;47011;-82
2024/01/03 10:03:23;;;;;;;;;4.67;4.00;;;;;15.64;49.35;100882.06;146612;597;47914;-83
2024/01/03 10:06:28;;;;;;;;;6.00;5.00;;;;;15.74;50.09;100882.41;146624;573;46020;-84
2024/01/03 10:09:26;;;;;;;;;5.00;5.00;;;;;15.75;50.41;100897.25;146621;586;46014;-84
2024/01/03 10:12:24;;;;;;;;;6.00;5.50;;;;;15.78;51.14;100889.50;146624;574;46020;-85
2024/01/03 10:15:23;;;;;;;;;0.00;0.00;;;;;15.82;51.27;100896.59;146619;565;46915;-82
2024/01/03 10:18:36;;;;;;;;;4.25;3.50;;;;;15.86;50.46;100895.88;146624;649;46010;-82
2024/01/03 10:21:29;;;;;;;;;5.50;5.50;;;;;15.90;49.10;100900.34;146620;583;46016;-82
2024/01/03 10:24:31;;;;;;;;;4.00;4.00;;;;;15.97;49.62;100886.62;146623;576;47020;-83
2024/01/03 10:27:26;;;;;;;;;2.67;2.67;;;;;16.03;48.69;100880.72;146623;583;46013;-83
2024/01/03 10:30:38;;;;;;;;;4.75;4.25;;;;;16.06;52.34;100886.91;146624;611;47014;-84
2024/01/03 10:33:32;;;;;;;;;3.00;3.00;;;;;16.08;48.26;100880.03;146622;712;46018;-81
2024/01/03 10:36:31;;;;;;;;;3.75;3.00;;;;;16.09;49.14;100873.06;146624;566;46021;-82
2024/01/03 10:39:34;;;;;;;;;4.00;3.00;;;;;16.11;48.83;100874.00;146620;674;46016;-83
2024/01/03 10:42:31;;;;;;;;;6.00;6.00;;;;;16.11;48.38;100867.03;146623;588;46011;-81
2024/01/03 10:45:28;;;;;;;;;5.00;5.00;;;;;16.11;48.59;100858.31;146622;565;46012;-80
2024/01/03 10:48:21;;;;;;;;;6.00;3.75;;;;;16.14;48.49;100850.56;146627;631;45020;-82
2024/01/03 10:51:22;;;;;;;;;8.50;8.50;;;;;16.15;49.75;100847.09;146622;570;46012;-83
2024/01/03 10:54:36;;;;;;;;;3.00;3.00;;;;;16.13;50.34;100836.56;146623;602;46014;-85
2024/01/03 10:57:34;;;;;;;;;10.00;8.25;;;;;16.05;49.10;100830.22;146621;719;46012;-85
2024/01/03 11:01:11;;;;;;;;;2.67;2.67;;;;;14.54;51.43;100585.91;146622;587;46020;-81
2024/01/03 11:04:29;;;;;;;;;5.75;5.75;;;;;15.87;51.14;100825.31;146619;598;46012;-82
2024/01/03 11:07:50;;;;;;;;;6.00;4.75;;;;;15.77;52.46;100825.88;146624;669;46014;-81
2024/01/03 11:11:03;;;;;;;;;12.00;9.75;;;;;14.46;53.01;100603.03;146617;656;46016;-80
2024/01/03 11:14:53;;;;;;;;;;;;;;;;;;;;;
2024/01/03 11:17:47;;;;;;;;;5.00;4.50;;;;;15.51;49.40;100806.69;146619;707;46016;-81
2024/01/03 11:20:46;;;;;;;;;13.00;11.00;;;;;15.46;50.33;100808.28;146625;629;46010;-81
2024/01/03 11:23:50;;;;;;;;;9.25;9.25;;;;;15.39;51.70;100796.75;146619;659;46030;-81
2024/01/03 11:27:35;;;;;;;;;15.75;14.00;;;;;13.92;54.30;100551.63;146621;571;46021;-80
2024/01/03 11:31:04;;;;;;;;;;;;;;;;;;;;;
2024/01/03 11:34:14;;;;;;;;;19.00;18.75;;;;;15.24;51.56;100799.72;146623;616;46020;-82
2024/01/03 11:37:10;;;;;;;;;14.50;12.75;;;;;15.19;50.39;100801.28;146616;586;47016;-82
2024/01/03 11:40:20;;;;;;;;;7.75;7.25;;;;;15.17;50.82;100804.69;146618;723;47010;-83
2024/01/03 11:43:33;;;;;;;;;12.00;10.00;;;;;13.95;53.49;100585.59;146617;597;48012;-81
2024/01/03 11:46:30;;;;;;;;;21.75;17.75;;;;;15.15;51.24;100808.97;146624;565;46010;-81
2024/01/03 11:49:29;;;;;;;;;21.25;17.75;;;;;15.08;50.97;100805.28;146620;604;46916;-84
2024/01/03 11:52:32;;;;;;;;;14.25;12.50;;;;;15.06;51.16;100811.28;146622;585;45020;-84
2024/01/03 11:55:43;;;;;;;;;20.50;18.25;;;;;15.02;52.62;100810.28;146618;592;46016;-83
2024/01/03 11:58:43;;;;;;;;;21.00;21.00;;;;;14.98;52.09;100808.38;146623;613;47010;-80
2024/01/03 12:01:44;;;;;;;;;28.00;26.50;;;;;14.96;51.64;100800.50;146610;687;47915;-82
2024/01/03 12:04:48;;;;;;;;;25.00;22.00;;;;;14.94;51.23;100802.16;146625;574;46015;-80
2024/01/03 12:07:52;;;;;;;;;15.00;15.00;;;;;14.94;51.50;100801.28;146618;662;46012;-82
2024/01/03 12:10:48;;;;;;;;;23.00;19.00;;;;;14.92;51.61;100792.50;146625;601;46015;-79
2024/01/03 12:13:48;;;;;;;;;37.25;31.00;;;;;14.93;52.75;100794.31;146618;598;46017;-82
2024/01/03 12:17:09;;;;;;;;;17.00;17.00;;;;;14.15;54.82;100651.50;146620;585;47014;-81
2024/01/03 12:20:21;;;;;;;;;34.25;30.25;;;;;14.93;54.97;100778.63;146621;573;46012;-81
2024/01/03 12:23:21;;;;;;;;;45.25;37.75;;;;;14.94;53.71;100767.34;146619;577;47010;-81
2024/01/03 12:26:39;;;;;;;;;30.00;26.75;;;;;14.93;54.04;100760.34;146617;616;46017;-83
2024/01/03 12:45:49;;;;;;;;;9.00;8.25;;;;;14.70;61.14;100768.28;146622;607;45937;-81
2024/01/03 12:49:25;;;;;;;;;21.00;19.25;;;;;14.58;62.34;100773.06;146624;701;45021;-80
2024/01/03 12:52:50;;;;;;;;;28.25;26.00;;;;;14.47;63.40;100767.41;146621;613;45913;-81
2024/01/03 12:56:34;;;;;;;;;28.25;20.50;;;;;14.45;63.55;100768.19;146623;689;45023;-81
2024/01/03 13:00:25;;;;;;;;;35.25;29.25;;;;;13.24;62.94;100576.00;146616;595;45916;-80
2024/01/03 13:04:18;;;;;;;;;37.75;32.00;;;;;13.37;63.02;100597.41;146624;578;45021;-82
2024/01/03 13:08:11;;;;;;;;;30.25;26.75;;;;;13.47;63.29;100598.66;146622;599;45916;-81
2024/01/03 13:11:35;;;;;;;;;;;;;;;;;;;;;
2024/01/03 13:14:50;;;;;;;;;27.75;27.25;;;;;14.40;63.92;100767.16;146622;563;45912;-82
2024/01/03 13:29:41;;;;;;;;;22.50;21.75;;;;;14.40;60.86;100761.94;146643;567;45023;-84
2024/01/03 13:33:15;;;;;;;;;47.75;39.50;;;;;14.36;61.51;100745.28;146616;616;45943;-83
2024/01/03 13:36:51;;;;;;;;;8.00;8.00;;;;;14.51;60.86;100753.66;146614;581;45021;-80
2024/01/03 13:40:17;;;;;;;;;15.50;14.00;;;;;13.51;61.08;100576.19;146616;598;45914;-82
2024/01/03 13:47:32;;;;;;;;;20.50;18.00;;;;;14.64;61.21;100762.84;146610;571;45916;-81
2024/01/03 13:51:14;;;;;;;;;23.25;22.00;;;;;13.12;60.86;100477.53;146613;592;46009;-83
2024/01/03 13:55:11;;;;;;;;;29.50;26.00;;;;;14.66;60.53;100750.72;146611;565;45916;-82
2024/01/03 13:58:48;;;;;;;;;;;;;;;;;;;;;
2024/01/03 14:02:43;;;;;;;;;15.00;13.25;;;;;14.67;60.68;100752.53;146611;569;45914;-81
2024/01/03 14:12:23;;;;;;;;;43.00;35.25;;;;;14.72;59.07;100753.56;146608;604;48012;-85
2024/01/03 14:15:16;;;;;;;;;32.75;28.25;;;;;14.71;58.63;100751.78;146601;575;47010;-84
2024/01/03 14:18:19;;;;;;;;;30.50;29.00;;;;;14.67;58.59;100749.00;146607;614;46020;-83
2024/01/03 14:21:12;;;;;;;;;48.25;39.00;;;;;14.64;58.33;100744.59;146606;569;46016;-81
2024/01/03 14:24:15;;;;;;;;;56.00;45.00;;;;;14.61;58.75;100747.09;146606;628;47008;-86
2024/01/03 14:27:08;;;;;;;;;51.50;41.75;;;;;14.58;58.32;100740.84;146602;569;47017;-85
2024/01/03 14:30:11;;;;;;;;;62.25;48.75;;;;;14.54;58.43;100738.13;146605;736;46020;-82
2024/01/03 14:33:08;;;;;;;;;65.50;51.75;;;;;14.51;58.52;100734.53;146603;625;47016;-84
2024/01/03 14:36:11;;;;;;;;;48.00;38.25;;;;;14.47;58.99;100720.47;146610;723;46020;-84
2024/01/03 14:39:12;;;;;;;;;49.75;40.75;;;;;14.44;58.97;100720.34;146602;579;47010;-85
2024/01/03 14:42:21;;;;;;;;;76.33;66.67;;;;;14.42;59.22;100721.13;146610;564;47008;-83
2024/01/03 14:45:13;;;;;;;;;70.75;60.50;;;;;14.39;58.66;100728.84;146606;597;47010;-86
2024/01/03 14:48:09;;;;;;;;;62.25;49.00;;;;;14.36;59.10;100736.56;146608;612;46020;-84
2024/01/03 14:51:07;;;;;;;;;53.25;43.00;;;;;14.32;59.17;100741.66;146603;652;46016;-83
2024/01/03 14:54:00;;;;;;;;;48.25;39.25;;;;;14.29;58.88;100736.31;146604;594;47008;-83
2024/01/03 14:57:01;;;;;;;;;37.00;32.50;;;;;14.28;59.06;100739.78;146602;590;47010;-82
2024/01/03 14:59:57;;;;;;;;;27.50;26.25;;;;;14.27;58.81;100732.78;146610;580;46008;-82
2024/01/03 15:02:50;;;;;;;;;21.50;20.00;;;;;14.27;58.29;100745.84;146604;588;47016;-85
2024/01/03 15:05:47;;;;;;;;;26.00;24.25;;;;;14.28;58.61;100755.44;146606;615;47008;-82
2024/01/03 15:08:56;;;;;;;;;31.25;27.50;;;;;14.29;58.24;100751.97;146601;605;48016;-83
2024/01/03 15:11:54;;;;;;;;;45.75;36.75;;;;;14.30;58.23;100740.72;146609;613;46008;-84
2024/01/03 15:14:48;;;;;;;;;48.50;37.75;;;;;14.30;58.18;100752.91;146603;582;47010;-83
2024/01/03 15:17:51;;;;;;;;;48.00;38.00;;;;;14.30;58.45;100753.78;146608;575;46008;-84
2024/01/03 15:20:46;;;;;;;;;25.50;21.50;;;;;14.29;58.36;100746.75;146597;597;49917;-84
2024/01/03 15:23:50;;;;;;;;;22.25;20.25;;;;;14.32;57.93;100751.22;146607;569;47008;-86
2024/01/03 15:26:51;;;;;;;;;49.25;39.25;;;;;14.33;58.02;100763.44;146606;572;47011;-83
2024/01/03 15:29:50;;;;;;;;;47.00;36.50;;;;;14.33;58.36;100756.50;146614;618;46020;-83
2024/01/03 15:32:48;;;;;;;;;45.50;34.50;;;;;14.32;58.23;100744.25;146609;594;46916;-85